Time;durP1;ratioP1;P1;durP2;ratioP2;P2;SDS_P1;SDS_P2;PMS_P1;PMS_P2;Temp;Humidity;BMP_temperature;BMP_pressure;BME280_temperature;BME280_humidity;BME280_pressure;Samples;Min_cycle;Max_cycle;Signal;HPM_P1;HPM_P2
2022/08/24 00:01:07;;;;;;;14.93;5.00;;;;;;;21.78;63.94;101236.88;5074627;28;20048;-53
2022/08/24 00:03:36;;;;;;;16.48;4.90;;;;;;;21.80;63.87;101238.28;5074263;28;20054;-53
2022/08/24 00:06:04;;;;;;;16.63;5.47;;;;;;;21.88;64.43;101244.47;5074549;28;20098;-53
2022/08/24 00:08:31;;;;;;;17.67;5.50;;;;;;;21.82;63.94;101240.78;5074092;28;20045;-52
2022/08/24 00:10:59;;;;;;;13.75;4.80;;;;;;;21.81;63.66;101239.97;5074361;28;20135;-53
2022/08/24 00:13:27;;;;;;;13.20;5.10;;;;;;;21.72;64.33;101237.72;5074630;28;20123;-53
2022/08/24 00:15:54;;;;;;;14.90;5.38;;;;;;;21.73;64.55;101245.59;5074253;28;20049;-51
2022/08/24 00:18:21;;;;;;;13.65;5.32;;;;;;;21.74;64.28;101238.31;5074443;28;20044;-52
2022/08/24 00:20:48;;;;;;;16.38;5.13;;;;;;;21.60;65.25;101233.00;5074322;28;20384;-53
2022/08/24 00:23:15;;;;;;;15.60;5.65;;;;;;;21.51;65.69;101236.16;5036600;28;20071;-53
2022/08/24 00:25:43;;;;;;;17.45;5.20;;;;;;;21.52;65.46;101233.25;5074648;28;20446;-52
2022/08/24 00:28:09;;;;;;;16.67;5.55;;;;;;;21.42;65.96;101239.06;5074129;28;20131;-52
2022/08/24 00:30:36;;;;;;;11.82;4.63;;;;;;;21.49;66.21;101235.56;5072829;28;20041;-53
2022/08/24 00:33:03;;;;;;;19.40;5.40;;;;;;;21.47;66.20;101225.78;5073629;28;20417;-52
2022/08/24 00:35:31;;;;;;;14.15;5.47;;;;;;;21.45;66.84;101235.16;5074387;28;20087;-52
2022/08/24 00:37:57;;;;;;;16.13;5.47;;;;;;;21.47;66.70;101242.00;5073783;28;20048;-52
2022/08/24 00:40:29;;;;;;;13.65;5.80;;;;;;;21.45;66.84;101229.75;5073980;28;20052;-51
2022/08/24 00:42:58;;;;;;;;;;;;;;;21.41;67.04;101233.88;5071193;28;20057;-53
2022/08/24 00:45:25;;;;;;;13.32;5.57;;;;;;;21.43;67.45;101242.63;5073681;28;19983;-52
2022/08/24 00:47:57;;;;;;;14.10;5.22;;;;;;;21.38;66.64;101235.16;5070258;28;20040;-53
2022/08/24 00:50:31;;;;;;;14.02;5.30;;;;;;;21.37;67.61;101233.47;5073477;28;20040;-53
2022/08/24 00:53:02;;;;;;;15.52;5.20;;;;;;;21.34;66.66;101242.03;5070036;28;20067;-53
2022/08/24 00:55:33;;;;;;;14.88;5.50;;;;;;;21.36;67.06;101236.41;5074090;28;20509;-53
2022/08/24 00:58:08;;;;;;;17.25;5.65;;;;;;;21.32;67.99;101238.72;5073581;28;20036;-53
2022/08/24 01:00:40;;;;;;;14.38;5.38;;;;;;;21.29;67.94;101236.44;5072903;28;20053;-52
2022/08/24 01:03:08;;;;;;;15.77;5.30;;;;;;;21.32;67.05;101235.16;5069182;28;20036;-52
2022/08/24 01:05:36;;;;;;;15.50;5.70;;;;;;;21.16;68.04;101236.47;5073336;28;20452;-53
2022/08/24 01:08:06;;;;;;;17.52;5.40;;;;;;;21.18;68.14;101226.31;5073684;28;20040;-53
2022/08/24 01:10:38;;;;;;;19.92;6.00;;;;;;;21.21;68.65;101229.41;5073487;28;20400;-52
2022/08/24 01:13:08;;;;;;;15.00;5.68;;;;;;;21.21;68.30;101240.19;5076651;28;20048;-53
2022/08/24 01:15:39;;;;;;;17.48;5.45;;;;;;;21.16;68.48;101237.31;5073519;28;20048;-52
2022/08/24 01:20:56;;;;;;;14.90;5.30;;;;;;;;;;5073040;28;19924;-53
2022/08/24 01:23:41;;;;;;;16.27;5.20;;;;;;;21.03;68.98;101231.97;5035313;28;20060;-51
2022/08/24 01:26:18;;;;;;;17.30;5.50;;;;;;;21.03;69.17;101231.97;5073276;28;20123;-53
2022/08/24 01:28:49;;;;;;;15.63;5.63;;;;;;;21.06;69.13;101234.22;5073583;28;20051;-54
2022/08/24 01:31:20;;;;;;;15.60;5.53;;;;;;;21.08;68.92;101235.66;5073292;28;20048;-53
2022/08/24 01:33:50;;;;;;;13.55;5.18;;;;;;;21.08;69.37;101240.22;5072601;28;20045;-53
2022/08/24 01:36:29;;;;;;;14.63;5.60;;;;;;;21.01;69.15;101236.72;5072983;28;20044;-53
2022/08/24 01:38:59;;;;;;;13.88;5.55;;;;;;;21.01;69.10;101237.56;5073287;28;20040;-54
2022/08/24 01:41:26;;;;;;;13.57;5.60;;;;;;;20.95;69.92;101238.38;5073607;28;20059;-52
2022/08/24 01:43:57;;;;;;;14.23;5.10;;;;;;;20.93;70.52;101235.06;5072968;28;20283;-53
2022/08/24 01:46:24;;;;;;;16.20;5.60;;;;;;;20.90;70.83;101240.88;5072644;28;20116;-53
2022/08/24 01:48:52;;;;;;;20.10;5.68;;;;;;;20.94;70.80;101236.75;5072936;28;20045;-52
2022/08/24 01:51:19;;;;;;;13.32;5.30;;;;;;;20.90;71.08;101239.03;5073016;28;20465;-51
2022/08/24 01:53:47;;;;;;;13.73;5.47;;;;;;;20.87;71.59;101241.31;5069856;28;20131;-51
2022/08/24 01:56:14;;;;;;;16.23;5.32;;;;;;;20.86;71.74;101245.03;5072777;28;20045;-52
2022/08/24 01:58:44;;;;;;;16.20;5.65;;;;;;;20.83;71.30;101254.38;5073238;28;20048;-53
2022/08/24 02:01:11;;;;;;;18.35;5.88;;;;;;;20.81;70.15;101255.63;5069436;28;20053;-52
2022/08/24 02:03:38;;;;;;;15.07;5.85;;;;;;;20.81;70.79;101261.00;5072643;28;20055;-51
2022/08/24 02:06:06;;;;;;;12.95;5.38;;;;;;;20.79;70.92;101255.00;5068405;28;20090;-52
2022/08/24 02:08:34;;;;;;;16.15;5.60;;;;;;;20.78;70.52;101259.56;5072807;28;20044;-55
2022/08/24 02:11:05;;;;;;;14.65;5.22;;;;;;;20.82;70.38;101263.50;5072690;28;20437;-53
2022/08/24 02:13:32;;;;;;;14.18;5.43;;;;;;;20.80;70.07;101262.88;5073059;28;20405;-53
2022/08/24 02:15:59;;;;;;;12.55;5.30;;;;;;;20.81;69.89;101256.47;5072945;28;20095;-53
2022/08/24 02:18:29;;;;;;;15.75;5.63;;;;;;;20.81;70.05;101258.31;5072699;28;20052;-54
2022/08/24 02:20:56;;;;;;;11.75;4.93;;;;;;;20.72;70.38;101263.13;5072905;28;20041;-53
2022/08/24 02:23:23;;;;;;;15.07;5.68;;;;;;;20.66;71.06;101245.06;5033603;28;20052;-53
2022/08/24 02:25:51;;;;;;;17.65;5.70;;;;;;;20.67;71.12;101258.34;5071775;28;20049;-53
2022/08/24 02:28:19;;;;;;;14.32;5.30;;;;;;;20.66;70.17;101253.16;5072670;28;20450;-53
2022/08/24 02:30:46;;;;;;;19.00;5.75;;;;;;;20.64;70.78;101263.31;5072637;28;20044;-54
2022/08/24 02:33:13;;;;;;;15.40;5.75;;;;;;;20.63;70.09;101267.03;5072131;28;20041;-53
2022/08/24 02:35:41;;;;;;;16.60;5.50;;;;;;;20.44;70.94;101271.38;5072834;28;20052;-51
2022/08/24 02:38:08;;;;;;;17.35;5.80;;;;;;;20.35;71.87;101264.53;5072420;28;20064;-53
2022/08/24 02:40:37;;;;;;;15.35;5.47;;;;;;;20.24;73.12;101266.78;5072392;28;20048;-54
2022/08/24 02:43:04;;;;;;;18.52;5.30;;;;;;;20.25;73.52;101262.25;5072758;28;20056;-53
2022/08/24 02:45:36;;;;;;;16.70;5.63;;;;;;;20.31;73.81;101262.22;5072348;28;20405;-53
2022/08/24 02:48:03;;;;;;;;;;;;;;;20.36;73.61;101267.00;5072896;28;20044;-54
2022/08/24 02:50:30;;;;;;;15.48;5.75;;;;;;;20.37;73.88;101259.75;5072472;28;20362;-53
2022/08/24 02:52:57;;;;;;;14.02;4.95;;;;;;;20.35;73.86;101265.34;5074179;28;20056;-54
2022/08/24 02:55:24;;;;;;;12.15;5.60;;;;;;;20.40;74.31;101264.75;5076348;28;20098;-53
2022/08/24 02:57:51;;;;;;;15.65;5.05;;;;;;;20.30;74.93;101265.97;5076040;28;20117;-54
2022/08/24 03:00:20;;;;;;;15.48;5.72;;;;;;;20.31;74.81;101266.81;5075791;28;20494;-50
2022/08/24 03:02:51;;;;;;;13.85;5.50;;;;;;;20.31;73.66;101261.41;5073030;28;20048;-54
2022/08/24 03:05:19;;;;;;;15.48;5.60;;;;;;;20.28;74.78;101259.13;5075672;28;20052;-51
2022/08/24 03:07:46;;;;;;;15.05;5.55;;;;;;;20.29;74.79;101258.91;5076019;28;20508;-54
2022/08/24 03:10:12;;;;;;;13.57;5.57;;;;;;;20.31;75.03;101264.94;5075299;28;20444;-53
2022/08/24 03:12:39;;;;;;;15.25;5.95;;;;;;;20.32;75.13;101265.78;5073617;28;20059;-53
2022/08/24 03:15:09;;;;;;;13.27;5.38;;;;;;;20.31;75.42;101267.63;5079755;28;20048;-53
2022/08/24 03:17:37;;;;;;;15.77;5.80;;;;;;;20.26;74.97;101267.41;5075695;28;20060;-53
2022/08/24 03:20:09;;;;;;;19.52;6.10;;;;;;;20.27;74.61;101269.06;5074459;28;20123;-53
2022/08/24 03:22:37;;;;;;;16.35;6.22;;;;;;;20.27;74.02;101269.06;5040940;28;20152;-54
2022/08/24 03:25:05;;;;;;;14.45;5.80;;;;;;;20.25;74.10;101265.75;5075211;28;20044;-53
2022/08/24 03:27:32;;;;;;;18.75;6.15;;;;;;;20.25;74.77;101264.94;5075820;28;20049;-53
2022/08/24 03:29:59;;;;;;;13.80;5.55;;;;;;;20.28;74.54;101261.81;5073851;28;20048;-52
2022/08/24 03:32:26;;;;;;;25.25;6.53;;;;;;;20.21;74.02;101261.81;5070308;28;20090;-52
2022/08/24 03:34:54;;;;;;;13.45;6.10;;;;;;;20.13;74.26;101268.22;5074919;28;20045;-50
2022/08/24 03:37:21;;;;;;;16.33;6.28;;;;;;;20.19;75.58;101263.88;5090664;28;20436;-51
2022/08/24 03:39:49;;;;;;;16.80;6.55;;;;;;;20.21;75.07;101264.53;5075994;28;20055;-52
2022/08/24 03:42:17;;;;;;;17.50;6.55;;;;;;;20.16;75.45;101258.09;5075047;28;20389;-53
2022/08/24 03:44:45;;;;;;;14.30;6.03;;;;;;;20.16;75.39;101264.31;5075018;28;20506;-51
2022/08/24 03:47:13;;;;;;;18.30;6.75;;;;;;;20.13;74.04;101267.38;5075320;28;20098;-49
2022/08/24 03:49:40;;;;;;;20.95;6.28;;;;;;;20.11;74.63;101272.97;5071767;28;20495;-50
2022/08/24 03:52:07;;;;;;;21.10;6.57;;;;;;;20.04;75.31;101265.94;5075139;28;20068;-49
2022/08/24 03:54:34;;;;;;;14.35;6.53;;;;;;;20.01;75.04;101263.63;5077959;28;20047;-53
2022/08/24 03:57:01;;;;;;;16.48;6.60;;;;;;;20.04;74.38;101272.13;5090289;28;20040;-50
2022/08/24 03:59:27;;;;;;;18.55;6.85;;;;;;;20.06;75.13;101259.28;5085489;28;20047;-53
2022/08/24 04:01:56;;;;;;;18.17;6.80;;;;;;;20.10;74.88;101265.94;5095212;28;20047;-50
2022/08/24 04:04:25;;;;;;;14.15;6.70;;;;;;;20.08;74.77;101259.94;5088898;28;20048;-51
2022/08/24 04:06:52;;;;;;;17.77;6.25;;;;;;;20.05;75.08;101267.59;5094875;28;20489;-49
2022/08/24 04:09:20;;;;;;;21.38;6.85;;;;;;;19.98;75.15;101259.50;5092091;28;20098;-53
2022/08/24 04:11:46;;;;;;;15.57;6.53;;;;;;;19.97;75.14;101267.78;5091213;28;20046;-50
2022/08/24 04:14:15;;;;;;;16.50;6.57;;;;;;;19.97;74.48;101267.78;5091309;28;20051;-51
2022/08/24 04:16:46;;;;;;;18.20;6.43;;;;;;;20.00;74.15;101267.38;5086427;28;20048;-57
2022/08/24 04:19:21;;;;;;;19.08;6.25;;;;;;;20.00;73.84;101270.88;5089743;28;20090;-53
2022/08/24 04:21:48;;;;;;;23.52;6.93;;;;;;;20.00;73.75;101272.75;5094798;28;20048;-50
2022/08/24 04:24:18;;;;;;;19.48;6.57;;;;;;;20.00;73.67;101270.88;5051490;28;20066;-49
2022/08/24 04:26:46;;;;;;;20.27;6.43;;;;;;;19.98;73.78;101272.13;5086021;28;20050;-49
2022/08/24 04:29:15;;;;;;;18.65;6.85;;;;;;;20.00;73.44;101275.47;5073375;28;20040;-51
2022/08/24 04:31:47;;;;;;;22.35;6.80;;;;;;;20.03;72.98;101275.03;5093473;28;20056;-52
2022/08/24 04:34:17;;;;;;;16.58;6.93;;;;;;;19.98;72.88;101277.53;5090193;28;20048;-51
2022/08/24 04:36:45;;;;;;;16.42;6.50;;;;;;;20.04;72.69;101279.38;5092803;28;20048;-49
2022/08/24 04:39:13;;;;;;;18.88;6.70;;;;;;;19.96;73.15;101276.91;5094170;28;20551;-51
2022/08/24 04:41:56;;;;;;;15.27;6.13;;;;;;;19.88;73.67;101283.28;5094687;28;20051;-53
2022/08/24 04:44:24;;;;;;;20.48;6.78;;;;;;;19.91;73.81;101289.09;5094090;28;20062;-53
2022/08/24 04:46:52;;;;;;;25.52;7.07;;;;;;;19.94;73.91;101279.78;5094262;28;20036;-53
2022/08/24 04:49:18;;;;;;;20.45;6.95;;;;;;;19.97;73.84;101286.63;5093827;28;20044;-53
2022/08/24 04:51:45;;;;;;;22.88;7.07;;;;;;;19.99;73.39;101282.69;5094498;28;20119;-52
2022/08/24 04:54:14;;;;;;;22.13;6.90;;;;;;;19.97;73.57;101281.25;5093998;28;20072;-52
2022/08/24 04:56:40;;;;;;;21.10;7.03;;;;;;;19.97;73.07;101286.63;5094176;28;20093;-53
2022/08/24 04:59:08;;;;;;;25.38;6.90;;;;;;;19.91;72.75;101285.56;5093719;28;20073;-52
2022/08/24 05:01:35;;;;;;;15.90;6.93;;;;;;;19.93;72.81;101286.19;5094129;28;20044;-53
2022/08/24 05:04:04;;;;;;;17.17;7.15;;;;;;;19.91;72.66;101289.09;5093521;28;20048;-52
2022/08/24 05:06:32;;;;;;;21.70;7.00;;;;;;;19.94;72.26;101294.06;5071143;28;20047;-53
2022/08/24 05:09:04;;;;;;;15.13;7.03;;;;;;;19.98;72.07;101293.69;5073243;28;20032;-52
2022/08/24 05:11:34;;;;;;;23.60;6.97;;;;;;;20.00;72.36;101299.69;5073567;28;20059;-53
2022/08/24 05:14:00;;;;;;;16.35;6.55;;;;;;;20.05;71.90;101294.53;5072275;28;20040;-53
2022/08/24 05:16:28;;;;;;;17.65;6.85;;;;;;;20.06;71.46;101294.28;5073162;28;20132;-54
2022/08/24 05:18:55;;;;;;;16.40;6.50;;;;;;;20.03;71.03;101307.34;5055276;28;20127;-53
2022/08/24 05:21:23;;;;;;;20.58;6.88;;;;;;;20.03;70.76;101301.94;5069344;28;20123;-53
2022/08/24 05:23:53;;;;;;;20.75;6.43;;;;;;;20.03;70.59;101305.50;5035517;28;20072;-53
2022/08/24 05:26:24;;;;;;;20.67;6.60;;;;;;;20.06;70.37;101299.69;5072962;28;20064;-53
2022/08/24 05:28:54;;;;;;;18.35;6.07;;;;;;;20.16;69.46;101301.19;5072979;28;20044;-53
2022/08/24 05:31:24;;;;;;;19.73;6.50;;;;;;;20.20;68.51;101314.03;5073044;28;20052;-53
2022/08/24 05:33:51;;;;;;;19.73;6.07;;;;;;;20.24;68.30;101309.88;5072578;28;20068;-53
2022/08/24 05:36:21;;;;;;;26.02;12.07;;;;;;;20.26;68.15;101315.06;5072510;28;20046;-54
2022/08/24 05:38:51;;;;;;;24.05;7.20;;;;;;;20.22;68.70;101313.81;5073217;28;20044;-54
2022/08/24 05:41:19;;;;;;;25.25;6.90;;;;;;;20.28;68.38;101310.31;5072659;28;20048;-54
2022/08/24 05:43:53;;;;;;;20.10;6.75;;;;;;;20.26;68.71;101323.16;5069162;28;20043;-56
2022/08/24 05:46:20;;;;;;;23.05;6.90;;;;;;;20.33;68.92;101319.44;5068813;28;20109;-55
2022/08/24 05:48:47;;;;;;;22.65;6.90;;;;;;;20.34;69.33;101320.28;5080461;28;21882;-55
2022/08/24 05:51:31;;;;;;;19.92;7.43;;;;;;;20.47;68.25;101325.69;5075805;28;20669;-54
2022/08/24 05:54:05;;;;;;;19.10;6.90;;;;;;;20.51;68.80;101324.22;5075037;28;20051;-54
2022/08/24 05:56:44;;;;;;;19.50;6.65;;;;;;;20.56;68.20;101326.31;5082234;28;20165;-54
2022/08/24 05:59:11;;;;;;;19.00;7.10;;;;;;;20.61;68.08;101333.78;5080447;28;20036;-54
2022/08/24 06:01:40;;;;;;;16.55;6.85;;;;;;;20.68;67.94;101327.41;5076473;28;20481;-54
2022/08/24 06:04:11;;;;;;;17.10;7.18;;;;;;;20.69;68.03;101330.91;5089233;28;20055;-54
2022/08/24 06:06:38;;;;;;;24.17;7.28;;;;;;;20.77;67.75;101327.19;5088495;28;20048;-54
2022/08/24 06:09:05;;;;;;;21.65;6.80;;;;;;;20.76;67.89;101331.75;5092300;28;20044;-55
2022/08/24 06:11:36;;;;;;;17.20;6.40;;;;;;;20.83;67.50;101329.03;5078411;28;20290;-54
2022/08/24 06:14:08;;;;;;;22.63;7.47;;;;;;;20.82;67.38;101332.78;5076203;28;20402;-54
2022/08/24 06:16:43;;;;;;;20.45;7.13;;;;;;;20.95;67.29;101335.47;5076979;28;20516;-54
2022/08/24 06:19:12;;;;;;;19.88;7.07;;;;;;;20.97;66.89;101329.88;5074015;28;20041;-54
2022/08/24 06:21:40;;;;;;;21.98;7.07;;;;;;;20.90;66.19;101344.19;5077042;28;20051;-54
2022/08/24 06:24:07;;;;;;;17.42;6.95;;;;;;;20.98;66.33;101351.22;5040654;28;20043;-53
2022/08/24 06:29:21;;;;;;;21.17;6.88;;;;;;;21.03;66.99;101348.75;5076728;28;20076;-53
2022/08/24 06:31:53;;;;;;;21.75;7.38;;;;;;;21.07;66.50;101344.59;5088458;28;20075;-53
2022/08/24 06:34:22;;;;;;;16.88;7.35;;;;;;;21.05;65.86;101335.88;5079216;28;20147;-54
2022/08/24 06:36:49;;;;;;;17.65;7.28;;;;;;;21.13;65.82;101344.78;5089973;28;20044;-53
2022/08/24 06:39:16;;;;;;;18.75;7.20;;;;;;;21.20;65.05;101351.84;5071972;28;20124;-54
2022/08/24 06:41:44;;;;;;;18.08;6.80;;;;;;;21.14;64.54;101358.06;5076634;28;20066;-56
2022/08/24 06:44:18;;;;;;;18.48;6.20;;;;;;;21.26;64.00;101348.28;5075377;28;20051;-55
2022/08/24 06:46:53;;;;;;;15.77;6.20;;;;;;;21.30;62.32;101359.47;5084343;28;20404;-56
2022/08/24 06:49:20;;;;;;;15.43;6.00;;;;;;;21.31;61.13;101357.63;5088962;28;20075;-55
2022/08/24 06:51:47;;;;;;;17.38;5.63;;;;;;;21.35;60.58;101356.16;5091626;28;20048;-55
2022/08/24 06:54:18;;;;;;;15.32;5.38;;;;;;;21.41;61.16;101356.16;5085021;28;20494;-55
2022/08/24 06:56:45;;;;;;;16.25;5.47;;;;;;;21.48;59.70;101356.16;5085634;28;20041;-55
2022/08/24 06:59:12;;;;;;;16.73;5.57;;;;;;;21.57;58.42;101354.06;5070860;28;20097;-55
2022/08/24 07:01:40;;;;;;;14.80;5.93;;;;;;;21.61;57.30;101358.84;5077903;28;20052;-55
2022/08/24 07:04:07;;;;;;;16.42;5.57;;;;;;;21.65;56.37;101351.97;5095144;28;20059;-55
2022/08/24 07:06:54;;;;;;;15.07;5.53;;;;;;;21.72;56.74;101354.66;5078811;28;20036;-54
2022/08/24 07:09:24;;;;;;;16.95;5.35;;;;;;;21.78;54.92;101361.06;5070786;28;20087;-55
2022/08/24 07:11:51;;;;;;;17.20;5.13;;;;;;;21.89;54.03;101362.28;5072914;28;20044;-54
2022/08/24 07:14:19;;;;;;;13.30;5.47;;;;;;;21.98;52.97;101366.41;5086023;28;20048;-54
2022/08/24 07:16:47;;;;;;;18.70;5.97;;;;;;;22.05;52.69;101369.91;5089338;28;20093;-54
2022/08/24 07:19:14;;;;;;;12.10;5.10;;;;;;;22.05;52.46;101367.19;5083701;28;20044;-55
2022/08/24 07:21:41;;;;;;;16.40;5.22;;;;;;;22.18;52.13;101372.53;5090339;28;20058;-59
2022/08/24 07:24:09;;;;;;;11.95;4.55;;;;;;;22.22;50.62;101372.91;5052429;28;20490;-56
2022/08/24 07:26:38;;;;;;;14.80;4.65;;;;;;;22.27;50.63;101375.03;5090498;28;20052;-55
2022/08/24 07:29:13;;;;;;;12.35;4.95;;;;;;;22.31;50.48;101371.66;5078922;28;20037;-56
2022/08/24 07:31:57;;;;;;;16.05;5.47;;;;;;;22.41;50.30;101366.59;5076887;28;20362;-56
2022/08/24 07:34:48;;;;;;;13.73;5.25;;;;;;;22.51;49.90;101371.53;5071968;28;20067;-56
2022/08/24 07:37:15;;;;;;;14.25;5.32;;;;;;;22.67;49.62;101369.34;5089622;28;20122;-56
2022/08/24 07:39:46;;;;;;;18.43;5.40;;;;;;;22.59;50.26;101370.44;5081328;28;20041;-56
2022/08/24 07:42:14;;;;;;;13.00;4.72;;;;;;;22.63;49.30;101371.66;5092752;28;20843;-56
2022/08/24 07:44:44;;;;;;;16.00;5.35;;;;;;;22.87;49.03;101372.72;5087270;28;20509;-56
2022/08/24 07:47:11;;;;;;;22.73;5.10;;;;;;;22.86;49.91;101373.75;5098862;28;20048;-56
2022/08/24 07:50:00;;;;;;;16.20;4.57;;;;;;;22.88;49.04;101370.84;5094035;28;20030;-56
2022/08/24 07:52:28;;;;;;;15.95;4.57;;;;;;;22.96;49.19;101376.00;5077986;28;20478;-56
2022/08/24 07:54:55;;;;;;;18.67;4.85;;;;;;;23.06;49.35;101381.75;5089765;28;20046;-56
2022/08/24 07:57:22;;;;;;;14.15;4.82;;;;;;;23.15;49.18;101380.41;5075347;28;20064;-56
2022/08/24 07:59:49;;;;;;;19.48;5.38;;;;;;;23.35;48.71;101384.81;5081087;28;20072;-56
2022/08/24 08:02:17;;;;;;;15.77;4.88;;;;;;;23.27;49.50;101380.50;5080382;28;20044;-55
2022/08/24 08:04:47;;;;;;;12.98;5.10;;;;;;;23.27;49.60;101382.41;5087647;28;20044;-56
2022/08/24 08:07:16;;;;;;;17.45;4.50;;;;;;;23.46;48.92;101388.66;5080883;28;20036;-56
2022/08/24 08:09:43;;;;;;;13.20;4.80;;;;;;;23.51;48.63;101389.63;5078133;28;20127;-56
2022/08/24 08:12:11;;;;;;;13.38;4.50;;;;;;;23.69;48.08;101394.22;5084793;28;20078;-56
2022/08/24 08:14:50;;;;;;;19.48;4.63;;;;;;;23.81;47.35;101397.03;5087243;28;20551;-56
2022/08/24 08:17:17;;;;;;;14.00;5.13;;;;;;;23.94;47.40;101399.59;5083611;28;20037;-56
2022/08/24 08:19:43;;;;;;;14.95;4.57;;;;;;;24.02;47.57;101401.16;5085376;28;20040;-56
2022/08/24 08:25:20;;;;;;;13.43;4.78;;;;;;;24.24;45.65;101395.28;5071330;28;20048;-53
2022/08/24 08:27:48;;;;;;;17.33;5.20;;;;;;;24.23;45.73;101399.03;5093721;28;20715;-54
2022/08/24 08:30:15;;;;;;;18.13;4.97;;;;;;;24.40;46.14;101393.81;5093405;28;20044;-54
2022/08/24 08:32:43;;;;;;;21.75;5.15;;;;;;;24.45;45.93;101402.91;5093858;28;20489;-54
2022/08/24 08:35:10;;;;;;;16.00;4.95;;;;;;;24.66;44.85;101406.16;5089753;28;20052;-53
2022/08/24 08:37:38;;;;;;;14.50;4.55;;;;;;;24.75;44.84;101409.38;5093742;28;20040;-53
2022/08/24 08:40:11;;;;;;;17.42;4.82;;;;;;;24.90;44.43;101404.31;5092117;28;20040;-54
2022/08/24 08:42:55;;;;;;;15.20;4.68;;;;;;;25.02;43.97;101402.47;5090196;28;20051;-54
2022/08/24 08:45:45;;;;;;;16.23;4.97;;;;;;;25.18;42.90;101411.78;5093236;28;20504;-54
2022/08/24 08:49:12;;;;;;;17.70;4.80;;;;;;;25.27;42.62;101415.84;5093276;28;20067;-53
2022/08/24 08:52:11;;;;;;;15.07;4.72;;;;;;;25.35;43.13;101406.50;5092863;28;20041;-54
2022/08/24 08:57:28;;;;;;;15.88;4.55;;;;;;;25.65;42.64;101398.22;5110240;27;20140;-53
2022/08/24 09:00:12;;;;;;;16.05;5.30;;;;;;;25.66;42.68;101394.44;5110230;28;20051;-53
2022/08/24 09:03:08;;;;;;;22.23;4.70;;;;;;;25.98;40.84;101393.22;5110180;28;20061;-53
2022/08/24 09:06:08;;;;;;;18.77;4.35;;;;;;;25.93;41.74;101390.41;5109767;28;20102;-53
2022/08/24 09:09:05;;;;;;;17.35;4.85;;;;;;;26.07;42.03;101393.63;5110104;28;20069;-54
2022/08/24 09:11:51;;;;;;;18.20;5.28;;;;;;;26.28;41.67;101392.16;5110052;28;20430;-52
2022/08/24 09:17:23;;;;;;;15.90;4.85;;;;;;;26.67;40.18;101397.75;5131371;27;20511;-54
2022/08/24 09:20:07;;;;;;;14.13;5.13;;;;;;;26.78;39.47;101386.81;5110652;28;20445;-54
2022/08/24 09:22:39;;;;;;;14.13;4.75;;;;;;;26.94;39.71;101387.91;4988997;28;20570;-55
2022/08/24 09:25:35;;;;;;;14.02;4.60;;;;;;;27.02;39.17;101388.56;5110986;28;20046;-53
2022/08/24 09:28:15;;;;;;;16.42;4.95;;;;;;;27.08;38.64;101387.53;5110927;28;20055;-53
2022/08/24 09:31:22;;;;;;;20.33;5.50;;;;;;;27.33;38.33;101389.88;5110097;28;20067;-54
2022/08/24 09:37:02;;;;;;;20.08;4.88;;;;;;;28.07;37.65;101392.19;5069319;28;20364;-50
2022/08/24 09:40:09;;;;;;;13.68;5.05;;;;;;;28.63;37.14;101388.41;5069594;28;20632;-52
2022/08/24 09:43:08;;;;;;;18.02;4.78;;;;;;;29.35;34.22;101387.03;5069329;28;20049;-54
2022/08/24 09:45:59;;;;;;;12.35;5.13;;;;;;;29.79;34.03;101385.91;5061822;28;20487;-54
2022/08/24 09:48:48;;;;;;;12.98;4.82;;;;;;;30.42;33.46;101381.16;5069798;28;20487;-53
2022/08/24 09:51:55;;;;;;;15.45;4.78;;;;;;;30.75;32.02;101370.78;5069671;28;20059;-53
2022/08/24 09:54:53;;;;;;;18.55;4.63;;;;;;;31.24;31.57;101382.25;5069279;28;20044;-54
2022/08/24 09:57:53;;;;;;;13.98;4.50;;;;;;;31.18;31.18;101382.25;5068154;28;20498;-53
2022/08/24 10:00:33;;;;;;;19.63;4.85;;;;;;;30.55;32.10;101379.00;5069339;28;20445;-54
2022/08/24 10:03:24;;;;;;;18.00;5.40;;;;;;;30.88;31.81;101376.78;5070053;28;20083;-53
2022/08/24 10:06:10;;;;;;;13.80;4.40;;;;;;;30.98;31.57;101374.06;5067830;28;20394;-54
2022/08/24 10:09:17;;;;;;;19.40;4.60;;;;;;;30.57;31.99;101372.13;5069202;28;20045;-53
2022/08/24 10:12:21;;;;;;;25.00;5.28;;;;;;;29.94;33.96;101377.75;5069017;28;20040;-54
2022/08/24 10:15:13;;;;;;;13.10;4.55;;;;;;;29.99;33.94;101372.28;5068475;28;20448;-54
2022/08/24 10:17:46;;;;;;;;;;;;;;;29.88;33.83;101362.41;5069408;28;20490;-54
2022/08/24 10:20:24;;;;;;;15.68;5.13;;;;;;;29.86;33.46;101364.59;5069063;28;19920;-54
2022/08/24 10:23:30;;;;;;;15.02;5.25;;;;;;;29.68;33.70;101363.13;4955104;28;20634;-53
2022/08/24 10:26:11;;;;;;;16.50;5.05;;;;;;;30.02;33.82;101363.56;5071604;28;20086;-54
2022/08/24 10:29:08;;;;;;;18.92;4.78;;;;;;;30.40;33.17;101352.44;5048542;28;20406;-53
2022/08/24 10:31:48;;;;;;;17.77;4.70;;;;;;;30.75;32.34;101354.34;5047398;28;20077;-54
2022/08/24 10:34:50;;;;;;;13.50;4.60;;;;;;;30.83;32.05;101357.63;5061557;28;20553;-55
2022/08/24 10:37:43;;;;;;;19.08;4.70;;;;;;;30.55;32.30;101349.69;5057125;28;20499;-51
2022/08/24 10:40:38;;;;;;;15.50;5.10;;;;;;;30.58;32.22;101345.56;5065297;28;20044;-51
2022/08/24 10:43:33;;;;;;;18.50;5.13;;;;;;;30.92;32.28;101339.56;5068055;28;20181;-50
2022/08/24 10:46:24;;;;;;;17.58;5.00;;;;;;;30.59;32.85;101337.09;5048054;28;20041;-48
2022/08/24 10:49:10;;;;;;;;;;;;;;;30.88;31.90;101339.25;5047664;28;20428;-50
2022/08/24 10:52:11;;;;;;;18.00;4.80;;;;;;;31.10;31.44;101328.00;5046913;28;19921;-50
2022/08/24 10:54:37;;;;;;;20.58;9.32;;;;;;;31.38;31.59;101332.03;5066097;28;20044;-48
2022/08/24 10:57:14;;;;;;;18.52;5.97;;;;;;;31.45;31.07;101336.38;5060399;28;20128;-53
2022/08/24 11:00:10;;;;;;;15.93;6.78;;;;;;;31.35;30.98;101332.59;5066407;28;20047;-50
2022/08/24 11:02:39;;;;;;;14.35;4.88;;;;;;;31.33;31.13;101332.06;5055018;28;20403;-52
2022/08/24 11:05:12;;;;;;;14.18;4.35;;;;;;;31.24;30.61;101327.44;5047202;28;20049;-49
2022/08/24 11:08:01;;;;;;;18.17;4.25;;;;;;;31.40;31.20;101334.50;5059784;28;20072;-51
2022/08/24 11:10:33;;;;;;;20.45;4.60;;;;;;;31.52;29.91;101328.72;5035586;28;20049;-52
2022/08/24 11:13:22;;;;;;;17.23;4.85;;;;;;;31.88;30.97;101328.53;5066651;28;20049;-50
2022/08/24 11:15:55;;;;;;;11.95;4.55;;;;;;;31.83;29.87;101334.06;5041507;28;20049;-54
2022/08/24 11:18:22;;;;;;;12.55;4.22;;;;;;;31.85;29.55;101321.69;5036076;28;20034;-54
2022/08/24 11:20:53;;;;;;;10.40;4.00;;;;;;;32.09;28.95;101321.00;5048272;28;20072;-55
2022/08/24 11:23:23;;;;;;;11.20;4.00;;;;;;;31.92;28.78;101319.44;5018242;28;20418;-55
2022/08/24 11:26:01;;;;;;;12.82;3.55;;;;;;;32.29;28.48;101326.38;5055103;28;20048;-55
2022/08/24 11:28:32;;;;;;;17.08;3.85;;;;;;;32.11;28.63;101319.63;5054319;28;20151;-56
2022/08/24 11:30:59;;;;;;;9.57;3.72;;;;;;;32.05;29.08;101311.72;5047937;28;20059;-55
2022/08/24 11:33:31;;;;;;;15.27;3.80;;;;;;;31.86;29.08;101314.28;5067424;28;20045;-56
2022/08/24 11:36:00;;;;;;;13.23;3.88;;;;;;;31.84;29.43;101309.09;5041726;28;20051;-56
2022/08/24 11:38:30;;;;;;;13.15;4.10;;;;;;;32.13;29.20;101308.38;5054493;28;20049;-56
2022/08/24 11:41:11;;;;;;;9.60;3.67;;;;;;;32.44;28.97;101308.94;5064616;28;20055;-57
2022/08/24 11:44:18;;;;;;;9.90;3.30;;;;;;;32.51;28.47;101305.88;5051502;28;20045;-56
2022/08/24 11:47:02;;;;;;;9.52;3.10;;;;;;;32.61;27.62;101299.50;5049944;28;20147;-55
2022/08/24 11:52:26;;;;;;;13.40;3.80;;;;;;;32.77;27.64;101297.41;5163268;27;20174;-55
2022/08/24 11:55:04;;;;;;;10.82;3.75;;;;;;;32.72;27.79;101301.03;5149857;27;20213;-54
2022/08/24 11:57:40;;;;;;;13.38;3.65;;;;;;;32.53;27.97;101293.47;5140823;27;20099;-55
2022/08/24 12:00:14;;;;;;;11.35;3.30;;;;;;;32.50;27.73;101293.25;5149025;27;20035;-55
2022/08/24 12:03:05;;;;;;;11.10;3.35;;;;;;;32.78;28.02;101299.03;5150080;27;20051;-55
2022/08/24 12:05:43;;;;;;;16.98;3.80;;;;;;;32.99;27.53;101289.47;5117768;27;20345;-55
2022/08/24 12:08:37;;;;;;;11.45;4.32;;;;;;;33.21;26.80;101294.47;5145966;27;20096;-56